ADDS METAR Data INFO
IDs: Format: Raw Decoded Include TAF

Data at: 2106 UTC 21 Nov 2017

METAR for:KTZR (Columbus/Bolton Fld, OH, US)
Text:KTZR 212050Z 21015G20KT 10SM SKC 12/M01 A2991
Temperature: 12.0°C ( 54°F)
Dewpoint: -1.0°C ( 30°F) [RH = 40%]
Pressure (altimeter):29.91 inches Hg (1013.0 mb)
Winds:from the SSW (210 degrees) at 17 MPH (15 knots; 7.7 m/s) gusting to 23 MPH (20 knots; 10.3 m/s)
Visibility:10 or more sm (16+ km)
Ceiling:at least 12,000 feet AGL
Clouds:clear skies